Dixie, Missouri
Current Conditions -  °F | °C
As of 5:53 AM on Thursday 27 Nov 2014 (Local Time) from KJEF Reporting Station
Overcast Overcast  
Wind Chill: 22°   Ceiling: 1300
Heat Index: 31°   Visibility: 7mi
Dew Point: 26°   Wind: 12mph
Humidity: 82%   Direction: 300°WNW
Pressure: 30.46"   Gusts: NA
Location:  38.718°N, 92.0861°W
Report Text: KJEF 271153Z 30010KT 7SM OVC013 M01/M03 A3046 RMK AO2 SLP308 7//// T10061033 10017 21006 53019 $
Loading
Personal Weather Stations






























Interactive Weather Map New forecast layout! Learn more

10-Day Weather Forecast

Advertisements
Track Severe Weather on mobile